Time;durP1;ratioP1;P1;durP2;ratioP2;P2;SDS_P1;SDS_P2;PMS_P1;PMS_P2;Temp;Humidity;BMP_temperature;BMP_pressure;BME280_temperature;BME280_humidity;BME280_pressure;Samples;Min_cycle;Max_cycle;Signal;HPM_P1;HPM_P2
2022/01/04 00:01:52;;;;;;;5.70;3.55;;;;;;;;;;5074995;28;20114;-38
2022/01/04 00:04:17;;;;;;;6.68;4.45;;;;;;;;;;5074611;28;20329;-38
2022/01/04 00:06:45;;;;;;;9.10;4.47;;;;;;;;;;5074887;28;20032;-37
2022/01/04 00:09:10;;;;;;;3.83;3.05;;;;;;;;;;5074701;28;20067;-38
2022/01/04 00:14:10;;;;;;;6.30;4.43;;;;;;;;;;5074454;28;20433;-39
2022/01/04 00:16:36;;;;;;;5.97;3.95;;;;;;;;;;5074973;28;20016;-38
2022/01/04 00:19:01;;;;;;;5.15;3.65;;;;;;;;;;5074935;28;20059;-38
2022/01/04 00:21:27;;;;;;;6.10;3.88;;;;;;;;;;5074698;28;20074;-38
2022/01/04 00:23:52;;;;;;;10.68;4.13;;;;;;;;;;5074422;28;20036;-38
2022/01/04 00:26:18;;;;;;;9.30;5.30;;;;;;;;;;5074449;28;20112;-38
2022/01/04 00:28:43;;;;;;;8.60;4.28;;;;;;;;;;5074567;28;20035;-38
2022/01/04 00:31:08;;;;;;;7.25;4.03;;;;;;;;;;5074338;28;20425;-38
2022/01/04 00:33:34;;;;;;;10.45;4.65;;;;;;;;;;5074565;28;20522;-38
2022/01/04 00:35:59;;;;;;;14.65;4.97;;;;;;;;;;5074230;28;20429;-38
2022/01/04 00:38:25;;;;;;;8.30;5.18;;;;;;;;;;5074068;28;20126;-38
2022/01/04 00:40:50;;;;;;;10.13;5.07;;;;;;;;;;5074251;28;20111;-39
2022/01/04 00:43:16;;;;;;;9.07;4.90;;;;;;;;;;5073944;28;20032;-38
2022/01/04 00:45:41;;;;;;;12.32;5.53;;;;;;;;;;5074354;28;20455;-38
2022/01/04 00:50:33;;;;;;;7.50;4.13;;;;;;;;;;5073906;28;20017;-38
2022/01/04 00:52:58;;;;;;;7.55;4.97;;;;;;;;;;5074221;28;20032;-38
2022/01/04 00:55:24;;;;;;;28.23;6.57;;;;;;;;;;5074140;28;20455;-38
2022/01/04 00:57:50;;;;;;;15.50;7.20;;;;;;;;;;5074192;28;20024;-38
2022/01/04 01:00:16;;;;;;;15.60;5.25;;;;;;;;;;5073777;28;20489;-38
2022/01/04 01:02:42;;;;;;;5.53;4.28;;;;;;;;;;5073731;28;20474;-38
2022/01/04 01:05:07;;;;;;;17.15;6.82;;;;;;;;;;5073671;28;20032;-38
2022/01/04 01:07:34;;;;;;;18.52;7.30;;;;;;;;;;5073594;28;20429;-37
2022/01/04 01:12:28;;;;;;;23.67;7.35;;;;;;;;;;5073470;28;20033;-37
2022/01/04 01:14:53;;;;;;;32.20;9.50;;;;;;;;;;5073645;28;20032;-38
2022/01/04 01:17:18;;;;;;;27.42;10.63;;;;;;;;;;5073743;28;20032;-37
2022/01/04 01:19:44;;;;;;;28.02;9.13;;;;;;;;;;5073492;28;20025;-38
2022/01/04 01:22:09;;;;;;;32.85;9.80;;;;;;;;;;5073478;28;20040;-38
2022/01/04 01:24:34;;;;;;;20.98;8.18;;;;;;;;;;5073204;28;20044;-38
2022/01/04 01:27:00;;;;;;;23.92;8.57;;;;;;;;;;5073315;28;20033;-38
2022/01/04 01:29:25;;;;;;;42.65;11.95;;;;;;;;;;5073612;28;20030;-38
2022/01/04 01:31:50;;;;;;;30.90;10.73;;;;;;;;;;5073555;28;20025;-38
2022/01/04 01:34:16;;;;;;;41.78;11.13;;;;;;;;;;5073386;28;20348;-37
2022/01/04 01:36:41;;;;;;;32.35;10.27;;;;;;;;;;5073184;28;20067;-38
2022/01/04 01:39:08;;;;;;;32.67;10.45;;;;;;;;;;5072924;28;20076;-38
2022/01/04 01:41:33;;;;;;;28.75;9.35;;;;;;;;;;5073072;28;20037;-38
2022/01/04 01:43:58;;;;;;;28.77;10.38;;;;;;;;;;5072822;28;20062;-38
2022/01/04 01:46:24;;;;;;;22.75;9.30;;;;;;;;;;5072882;28;20025;-38
2022/01/04 01:48:49;;;;;;;20.10;8.80;;;;;;;;;;5073006;28;20066;-38
2022/01/04 01:51:17;;;;;;;36.30;10.15;;;;;;;;;;5072736;28;20467;-38
2022/01/04 01:53:43;;;;;;;35.33;10.85;;;;;;;;;;5072769;28;20058;-38
2022/01/04 01:56:08;;;;;;;29.50;9.80;;;;;;;;;;5072706;28;20024;-38
2022/01/04 01:58:34;;;;;;;31.73;11.18;;;;;;;;;;5072670;28;20028;-37
2022/01/04 02:00:59;;;;;;;31.80;11.15;;;;;;;;;;5072870;28;20573;-38
2022/01/04 02:03:24;;;;;;;22.58;10.88;;;;;;;;;;5072393;28;20505;-39
2022/01/04 02:05:51;;;;;;;24.13;9.55;;;;;;;;;;5072619;28;20037;-38
2022/01/04 02:08:18;;;;;;;29.60;8.60;;;;;;;;;;5072359;28;20589;-38
2022/01/04 02:10:44;;;;;;;32.47;12.48;;;;;;;;;;5073075;28;20082;-38
2022/01/04 02:13:09;;;;;;;32.80;9.90;;;;;;;;;;5072608;28;20031;-38
2022/01/04 02:15:35;;;;;;;24.92;10.15;;;;;;;;;;5072410;28;20028;-38
2022/01/04 02:18:00;;;;;;;29.27;10.88;;;;;;;;;;5071758;28;20502;-38
2022/01/04 02:20:26;;;;;;;51.53;13.73;;;;;;;;;;5072462;28;20058;-37
2022/01/04 02:22:52;;;;;;;42.40;14.43;;;;;;;;;;5071975;28;20024;-38
2022/01/04 02:25:17;;;;;;;37.47;11.68;;;;;;;;;;5072163;28;20042;-38
2022/01/04 02:27:43;;;;;;;42.17;11.80;;;;;;;;;;5070792;28;20020;-38
2022/01/04 02:30:10;;;;;;;43.03;14.35;;;;;;;;;;5072402;28;20043;-37
2022/01/04 02:32:35;;;;;;;35.40;10.90;;;;;;;;;;5072027;28;20016;-39
2022/01/04 02:35:01;;;;;;;32.03;11.20;;;;;;;;;;5071979;28;20051;-37
2022/01/04 02:37:27;;;;;;;47.65;12.90;;;;;;;;;;5072105;28;20052;-39
2022/01/04 02:39:53;;;;;;;29.08;10.70;;;;;;;;;;5087483;28;20109;-38
2022/01/04 02:42:18;;;;;;;33.45;10.98;;;;;;;;;;5072024;28;20031;-38
2022/01/04 02:44:44;;;;;;;41.78;11.55;;;;;;;;;;5071682;28;20086;-38
2022/01/04 02:47:09;;;;;;;37.05;13.85;;;;;;;;;;5071888;28;20035;-37
2022/01/04 02:49:35;;;;;;;42.58;10.90;;;;;;;;;;5072317;28;20715;-38
2022/01/04 02:52:00;;;;;;;40.55;14.38;;;;;;;;;;5071965;28;20055;-38
2022/01/04 02:54:26;;;;;;;48.45;13.25;;;;;;;;;;5071558;28;20144;-38
2022/01/04 02:56:51;;;;;;;36.67;11.85;;;;;;;;;;5071918;28;20024;-38
2022/01/04 02:59:17;;;;;;;40.97;11.75;;;;;;;;;;5071491;28;20114;-37
2022/01/04 03:01:42;;;;;;;37.40;13.63;;;;;;;;;;5071644;28;20020;-37
2022/01/04 03:04:08;;;;;;;31.27;12.65;;;;;;;;;;5071400;28;20079;-38
2022/01/04 03:06:34;;;;;;;34.30;13.05;;;;;;;;;;5071378;28;20029;-39
2022/01/04 03:08:59;;;;;;;45.85;14.38;;;;;;;;;;5071883;28;20086;-38
2022/01/04 03:11:24;;;;;;;30.45;10.63;;;;;;;;;;5071650;28;20466;-38
2022/01/04 03:13:50;;;;;;;37.28;12.77;;;;;;;;;;5071713;28;20033;-38
2022/01/04 03:16:15;;;;;;;33.35;11.07;;;;;;;;;;5071288;28;20601;-38
2022/01/04 03:19:01;;;;;;;36.83;13.35;;;;;;;;;;5071649;28;20057;-38
2022/01/04 03:21:25;;;;;;;33.30;11.57;;;;;;;;;;5071175;28;20128;-38
2022/01/04 03:23:51;;;;;;;37.60;12.05;;;;;;;;;;5071488;28;20112;-38
2022/01/04 03:26:16;;;;;;;40.47;14.95;;;;;;;;;;5071266;28;20028;-38
2022/01/04 03:28:42;;;;;;;31.55;13.13;;;;;;;;;;5069882;28;20128;-38
2022/01/04 03:31:08;;;;;;;29.20;10.50;;;;;;;;;;5071634;28;20028;-38
2022/01/04 03:33:34;;;;;;;32.25;11.82;;;;;;;;;;5071037;28;20527;-37
2022/01/04 03:36:00;;;;;;;40.40;14.13;;;;;;;;;;5071246;28;20029;-39
2022/01/04 03:38:25;;;;;;;37.63;12.15;;;;;;;;;;5071242;28;20024;-38
2022/01/04 03:40:51;;;;;;;39.65;12.82;;;;;;;;;;5071027;28;20124;-37
2022/01/04 03:43:16;;;;;;;33.63;12.68;;;;;;;;;;5070931;28;20040;-38
2022/01/04 03:45:42;;;;;;;33.70;12.98;;;;;;;;;;5071090;28;20029;-37
2022/01/04 03:48:07;;;;;;;41.20;14.55;;;;;;;;;;5071053;28;20035;-37
2022/01/04 03:50:32;;;;;;;40.97;12.55;;;;;;;;;;5071292;28;20028;-38
2022/01/04 03:52:58;;;;;;;34.17;13.18;;;;;;;;;;5070958;28;20376;-38
2022/01/04 03:55:23;;;;;;;33.55;11.55;;;;;;;;;;5070822;28;20063;-38
2022/01/04 03:57:48;;;;;;;38.20;11.70;;;;;;;;;;5071374;28;20051;-38
2022/01/04 04:00:14;;;;;;;24.48;11.80;;;;;;;;;;5071161;28;20048;-38
2022/01/04 04:02:39;;;;;;;31.60;10.52;;;;;;;;;;5071166;28;20021;-38
2022/01/04 04:05:05;;;;;;;43.00;11.93;;;;;;;;;;5070845;28;20049;-38
2022/01/04 04:07:30;;;;;;;28.23;11.35;;;;;;;;;;5071143;28;20025;-38
2022/01/04 04:09:56;;;;;;;36.88;10.98;;;;;;;;;;5071263;28;20095;-38
2022/01/04 04:12:23;;;;;;;32.97;12.25;;;;;;;;;;5070742;28;20024;-38
2022/01/04 04:14:48;;;;;;;35.85;12.35;;;;;;;;;;5071439;28;20043;-38
2022/01/04 04:17:14;;;;;;;31.58;15.40;;;;;;;;;;5070640;28;20455;-38
2022/01/04 04:19:39;;;;;;;31.38;10.95;;;;;;;;;;5071120;28;20059;-37
2022/01/04 04:22:04;;;;;;;39.00;12.45;;;;;;;;;;5070811;28;20021;-38
2022/01/04 04:24:30;;;;;;;34.90;10.75;;;;;;;;;;5070486;28;20057;-38
2022/01/04 04:26:55;;;;;;;35.72;12.40;;;;;;;;;;5071026;28;20021;-37
2022/01/04 04:29:21;;;;;;;36.97;10.27;;;;;;;;;;5070698;28;20036;-38
2022/01/04 04:31:46;;;;;;;26.67;11.70;;;;;;;;;;5070573;28;20028;-38
2022/01/04 04:34:11;;;;;;;37.15;12.00;;;;;;;;;;5070626;28;20032;-38
2022/01/04 04:36:37;;;;;;;32.00;10.70;;;;;;;;;;5070825;28;20036;-37
2022/01/04 04:39:03;;;;;;;31.63;12.82;;;;;;;;;;5070538;28;20056;-38
2022/01/04 04:41:28;;;;;;;36.95;11.65;;;;;;;;;;5072857;28;20471;-37
2022/01/04 04:43:54;;;;;;;32.17;10.23;;;;;;;;;;5074333;28;20036;-38
2022/01/04 04:46:20;;;;;;;29.75;10.95;;;;;;;;;;5074292;28;20025;-38
2022/01/04 04:48:45;;;;;;;27.42;11.35;;;;;;;;;;5074047;28;20115;-38
2022/01/04 04:51:11;;;;;;;25.80;11.25;;;;;;;;;;5074007;28;20163;-37
2022/01/04 04:53:36;;;;;;;31.90;10.38;;;;;;;;;;5074174;28;20064;-38
2022/01/04 04:56:02;;;;;;;28.45;11.13;;;;;;;;;;5074274;28;20133;-37
2022/01/04 04:58:27;;;;;;;27.17;13.30;;;;;;;;;;5074076;28;20062;-37
2022/01/04 05:00:52;;;;;;;30.55;9.98;;;;;;;;;;5074166;28;20489;-38
2022/01/04 05:03:18;;;;;;;31.30;11.13;;;;;;;;;;5073934;28;20032;-38
2022/01/04 05:05:43;;;;;;;25.10;9.73;;;;;;;;;;5073769;28;20078;-38
2022/01/04 05:08:09;;;;;;;29.15;10.65;;;;;;;;;;5073762;28;20055;-38
2022/01/04 05:10:35;;;;;;;32.17;12.93;;;;;;;;;;5073626;28;20028;-38
2022/01/04 05:13:00;;;;;;;30.30;10.90;;;;;;;;;;5073843;28;20037;-38
2022/01/04 05:15:26;;;;;;;34.60;12.00;;;;;;;;;;5073838;28;20393;-37
2022/01/04 05:17:51;;;;;;;30.52;11.77;;;;;;;;;;5073599;28;20548;-37
2022/01/04 05:20:16;;;;;;;30.55;12.05;;;;;;;;;;5073622;28;20077;-37
2022/01/04 05:22:42;;;;;;;27.17;10.27;;;;;;;;;;5088870;28;20059;-38
2022/01/04 05:25:07;;;;;;;30.52;10.10;;;;;;;;;;5073447;28;20017;-38
2022/01/04 05:27:33;;;;;;;26.40;10.52;;;;;;;;;;5073272;28;20040;-38
2022/01/04 05:29:58;;;;;;;30.02;11.00;;;;;;;;;;5073402;28;20020;-38
2022/01/04 05:32:24;;;;;;;30.98;10.95;;;;;;;;;;5073221;28;20029;-38
2022/01/04 05:34:49;;;;;;;29.45;9.20;;;;;;;;;;5073153;28;20024;-38
2022/01/04 05:37:15;;;;;;;27.08;11.60;;;;;;;;;;5073156;28;20433;-38
2022/01/04 05:39:40;;;;;;;29.75;9.90;;;;;;;;;;5073052;28;20565;-38
2022/01/04 05:42:08;;;;;;;23.52;9.02;;;;;;;;;;5073244;28;20475;-38
2022/01/04 05:44:34;;;;;;;25.15;10.68;;;;;;;;;;5072916;28;20039;-38
2022/01/04 05:46:59;;;;;;;28.00;9.80;;;;;;;;;;5073261;28;20032;-38
2022/01/04 05:49:24;;;;;;;27.10;10.25;;;;;;;;;;5072840;28;20020;-38
2022/01/04 05:51:50;;;;;;;29.63;10.20;;;;;;;;;;5072184;28;20037;-38
2022/01/04 05:54:15;;;;;;;23.23;11.93;;;;;;;;;;5072372;28;20020;-38
2022/01/04 05:56:41;;;;;;;29.52;10.07;;;;;;;;;;5072812;28;20036;-38
2022/01/04 05:59:06;;;;;;;28.60;10.40;;;;;;;;;;5072821;28;20025;-38
2022/01/04 06:01:31;;;;;;;36.33;10.38;;;;;;;;;;5072917;28;20039;-38
2022/01/04 06:03:57;;;;;;;18.83;8.90;;;;;;;;;;5072494;28;20028;-38
2022/01/04 06:06:22;;;;;;;25.25;10.07;;;;;;;;;;5072516;28;20032;-38
2022/01/04 06:08:49;;;;;;;28.30;9.48;;;;;;;;;;5072927;28;20016;-38
2022/01/04 06:11:31;;;;;;;24.42;9.73;;;;;;;;;;5072320;28;20069;-38
2022/01/04 06:16:40;;;;;;;19.83;8.77;;;;;;;;;;5072351;28;20076;-38
2022/01/04 06:19:06;;;;;;;17.77;9.20;;;;;;;;;;5072683;28;20063;-38
2022/01/04 06:21:31;;;;;;;22.08;11.55;;;;;;;;;;5072193;28;20111;-37
2022/01/04 06:23:57;;;;;;;21.15;8.45;;;;;;;;;;5072404;28;20074;-38
2022/01/04 06:26:23;;;;;;;22.88;9.07;;;;;;;;;;5072101;28;20592;-38
2022/01/04 06:28:48;;;;;;;17.13;7.72;;;;;;;;;;5072202;28;20115;-38
2022/01/04 06:31:14;;;;;;;22.88;8.73;;;;;;;;;;5072366;28;20029;-38
2022/01/04 06:33:39;;;;;;;21.23;7.93;;;;;;;;;;5072090;28;20054;-38
2022/01/04 06:36:05;;;;;;;23.42;10.02;;;;;;;;;;5072243;28;20021;-38
2022/01/04 06:38:30;;;;;;;23.20;8.15;;;;;;;;;;5071693;28;20036;-38
2022/01/04 06:40:55;;;;;;;22.00;7.22;;;;;;;;;;5071990;28;20541;-38
2022/01/04 06:43:21;;;;;;;21.58;9.20;;;;;;;;;;5072010;28;20202;-38
2022/01/04 06:45:46;;;;;;;21.17;9.48;;;;;;;;;;5071826;28;20434;-37
2022/01/04 06:48:12;;;;;;;16.85;7.43;;;;;;;;;;5072093;28;20495;-38
2022/01/04 06:50:37;;;;;;;15.43;8.27;;;;;;;;;;5071689;28;20628;-37
2022/01/04 06:53:03;;;;;;;22.30;8.38;;;;;;;;;;5071612;28;20055;-38
2022/01/04 06:55:28;;;;;;;20.50;8.25;;;;;;;;;;5071582;28;20044;-38
2022/01/04 06:57:54;;;;;;;19.67;7.30;;;;;;;;;;5072006;28;20016;-37
2022/01/04 07:00:19;;;;;;;24.30;9.60;;;;;;;;;;5071558;28;20490;-37
2022/01/04 07:02:45;;;;;;;19.42;8.90;;;;;;;;;;5071819;28;20024;-38
2022/01/04 07:05:10;;;;;;;19.60;8.85;;;;;;;;;;5071328;28;20102;-37
2022/01/04 07:07:35;;;;;;;20.27;8.30;;;;;;;;;;5070167;28;20673;-37
2022/01/04 07:10:01;;;;;;;19.88;7.85;;;;;;;;;;5071810;28;20032;-38
2022/01/04 07:12:26;;;;;;;14.18;6.68;;;;;;;;;;5071571;28;20107;-37
2022/01/04 07:14:52;;;;;;;14.75;7.03;;;;;;;;;;5071467;28;20039;-38
2022/01/04 07:17:17;;;;;;;17.63;6.95;;;;;;;;;;5071362;28;20077;-38
2022/01/04 07:19:43;;;;;;;22.55;8.48;;;;;;;;;;5071455;28;20050;-37
2022/01/04 07:22:09;;;;;;;19.05;7.60;;;;;;;;;;5071313;28;20021;-37
2022/01/04 07:24:34;;;;;;;25.13;7.88;;;;;;;;;;5071378;28;20036;-38
2022/01/04 07:26:59;;;;;;;19.42;9.43;;;;;;;;;;5071391;28;20031;-38
2022/01/04 07:29:25;;;;;;;18.48;8.35;;;;;;;;;;5086741;28;20428;-37
2022/01/04 07:31:50;;;;;;;19.80;7.38;;;;;;;;;;5071619;28;20473;-38
2022/01/04 07:34:16;;;;;;;22.27;8.18;;;;;;;;;;5071146;28;20029;-37
2022/01/04 07:36:41;;;;;;;15.57;7.68;;;;;;;;;;5071144;28;20013;-37
2022/01/04 07:39:07;;;;;;;16.80;7.55;;;;;;;;;;5071208;28;20131;-38
2022/01/04 07:41:33;;;;;;;18.23;9.30;;;;;;;;;;5071178;28;20112;-37
2022/01/04 07:43:58;;;;;;;19.25;7.85;;;;;;;;;;5071000;28;20036;-38
2022/01/04 07:46:25;;;;;;;23.52;8.30;;;;;;;;;;5071156;28;20024;-38
2022/01/04 07:48:51;;;;;;;20.15;8.02;;;;;;;;;;5071086;28;20129;-38
2022/01/04 07:51:17;;;;;;;22.88;8.70;;;;;;;;;;5071267;28;20044;-37
2022/01/04 07:53:42;;;;;;;19.05;8.50;;;;;;;;;;5071115;28;20486;-38
2022/01/04 07:56:07;;;;;;;19.83;7.55;;;;;;;;;;5071029;28;20026;-38
2022/01/04 07:58:33;;;;;;;14.85;7.35;;;;;;;;;;5071285;28;20036;-38
2022/01/04 08:00:58;;;;;;;13.10;6.18;;;;;;;;;;5071236;28;20417;-38
2022/01/04 08:03:24;;;;;;;21.73;8.18;;;;;;;;;;5070780;28;20437;-37
2022/01/04 08:05:49;;;;;;;16.10;7.57;;;;;;;;;;5071331;28;20447;-37
2022/01/04 08:08:15;;;;;;;22.13;8.23;;;;;;;;;;5071191;28;20145;-37
2022/01/04 08:10:40;;;;;;;16.85;6.35;;;;;;;;;;5070845;28;20119;-37
2022/01/04 08:13:06;;;;;;;21.42;9.18;;;;;;;;;;5070913;28;20025;-37
2022/01/04 08:15:31;;;;;;;15.77;7.30;;;;;;;;;;5071591;28;20107;-38
2022/01/04 08:17:57;;;;;;;17.92;8.50;;;;;;;;;;5074972;28;20474;-37
2022/01/04 08:20:23;;;;;;;20.05;9.07;;;;;;;;;;5074821;28;20064;-39
2022/01/04 08:22:48;;;;;;;15.60;7.47;;;;;;;;;;5074735;28;20056;-37
2022/01/04 08:25:14;;;;;;;15.75;7.63;;;;;;;;;;5074473;28;20364;-37
2022/01/04 08:27:39;;;;;;;21.60;9.07;;;;;;;;;;5074420;28;20047;-37
2022/01/04 08:30:05;;;;;;;23.02;8.30;;;;;;;;;;5074424;28;20035;-37
2022/01/04 08:32:31;;;;;;;18.13;8.32;;;;;;;;;;5074260;28;20505;-37
2022/01/04 08:34:56;;;;;;;20.35;7.80;;;;;;;;;;5074422;28;20016;-37
2022/01/04 08:37:22;;;;;;;19.85;6.38;;;;;;;;;;5074538;28;20170;-38
2022/01/04 08:39:47;;;;;;;17.80;8.05;;;;;;;;;;5074043;28;20508;-38
2022/01/04 08:42:13;;;;;;;24.80;7.90;;;;;;;;;;5074145;28;20036;-38
2022/01/04 08:44:39;;;;;;;18.58;7.50;;;;;;;;;;5074319;28;20046;-38
2022/01/04 08:47:11;;;;;;;14.38;7.35;;;;;;;;;;5074364;28;20075;-38
2022/01/04 08:49:37;;;;;;;25.15;9.52;;;;;;;;;;5074345;28;20039;-41
2022/01/04 08:52:04;;;;;;;29.20;9.60;;;;;;;;;;5074295;28;20020;-37
2022/01/04 08:54:29;;;;;;;26.80;10.43;;;;;;;;;;5073994;28;20029;-38
2022/01/04 08:56:55;;;;;;;20.42;8.10;;;;;;;;;;5074249;28;20106;-38
2022/01/04 08:59:21;;;;;;;24.45;8.95;;;;;;;;;;5073869;28;20032;-37
2022/01/04 09:01:47;;;;;;;26.05;9.40;;;;;;;;;;5074133;28;20036;-38
2022/01/04 09:04:12;;;;;;;19.20;8.93;;;;;;;;;;5073954;28;20047;-37
2022/01/04 09:06:38;;;;;;;15.48;7.95;;;;;;;;;;5073777;28;20028;-37
2022/01/04 09:09:03;;;;;;;19.98;8.60;;;;;;;;;;5073749;28;20067;-38
2022/01/04 09:11:29;;;;;;;24.23;9.60;;;;;;;;;;5073653;28;20066;-37
2022/01/04 09:14:10;;;;;;;21.88;9.38;;;;;;;;;;5073939;28;20032;-37
2022/01/04 09:19:21;;;;;;;21.92;8.10;;;;;;;;;;5073545;28;20060;-38
2022/01/04 09:21:46;;;;;;;28.17;9.43;;;;;;;;;;5073522;28;20487;-38
2022/01/04 09:24:11;;;;;;;16.83;7.70;;;;;;;;;;5073372;28;20036;-38
2022/01/04 09:26:37;;;;;;;22.95;9.02;;;;;;;;;;5073389;28;20025;-38
2022/01/04 09:29:03;;;;;;;18.27;8.57;;;;;;;;;;5073371;28;20089;-37
2022/01/04 09:31:28;;;;;;;17.60;6.78;;;;;;;;;;5073218;28;20035;-37
2022/01/04 09:33:55;;;;;;;22.70;8.35;;;;;;;;;;5073841;28;20413;-38
2022/01/04 09:36:21;;;;;;;15.32;6.80;;;;;;;;;;5073180;28;20036;-37
2022/01/04 09:38:46;;;;;;;26.25;9.73;;;;;;;;;;5073312;28;20123;-37
2022/01/04 09:41:12;;;;;;;18.13;7.75;;;;;;;;;;5073301;28;20024;-38
2022/01/04 09:43:37;;;;;;;25.13;8.93;;;;;;;;;;5072929;28;20048;-37
2022/01/04 09:46:03;;;;;;;24.95;8.90;;;;;;;;;;5073619;28;20020;-37
2022/01/04 09:48:28;;;;;;;20.40;8.38;;;;;;;;;;5073267;28;20109;-38
2022/01/04 09:50:55;;;;;;;22.00;8.55;;;;;;;;;;5072920;28;20166;-37
2022/01/04 09:53:21;;;;;;;20.75;8.13;;;;;;;;;;5072763;28;20065;-38
2022/01/04 09:55:48;;;;;;;22.48;8.80;;;;;;;;;;5072980;28;20476;-38
2022/01/04 09:58:13;;;;;;;24.35;7.95;;;;;;;;;;5072659;28;20533;-37
2022/01/04 10:00:39;;;;;;;16.60;8.50;;;;;;;;;;5073043;28;20020;-37
2022/01/04 10:03:10;;;;;;;22.05;7.90;;;;;;;;;;5072616;28;20037;-37
2022/01/04 10:05:36;;;;;;;20.23;8.13;;;;;;;;;;5072786;28;20044;-37
2022/01/04 10:08:02;;;;;;;20.45;8.48;;;;;;;;;;5072652;28;20013;-38
2022/01/04 10:10:28;;;;;;;21.45;7.53;;;;;;;;;;5071201;28;20432;-37
2022/01/04 10:12:56;;;;;;;21.00;8.38;;;;;;;;;;5072756;28;20104;-37
2022/01/04 10:15:39;;;;;;;19.90;6.60;;;;;;;;;;5072672;28;20132;-37
2022/01/04 10:18:13;;;;;;;18.55;9.35;;;;;;;;;;5087982;28;20493;-37
2022/01/04 10:20:40;;;;;;;20.33;8.50;;;;;;;;;;5072459;28;20090;-37
2022/01/04 10:23:10;;;;;;;20.77;7.82;;;;;;;;;;5072170;28;20016;-38
2022/01/04 10:25:35;;;;;;;15.82;7.00;;;;;;;;;;5072420;28;20120;-37
2022/01/04 10:28:01;;;;;;;19.05;7.50;;;;;;;;;;5072167;28;20111;-38
2022/01/04 10:30:29;;;;;;;19.83;8.68;;;;;;;;;;5072363;28;20063;-37
2022/01/04 10:33:14;;;;;;;23.05;7.85;;;;;;;;;;5072346;28;20383;-38
2022/01/04 10:35:50;;;;;;;15.75;6.47;;;;;;;;;;5072033;28;20028;-37
2022/01/04 10:38:26;;;;;;;16.42;7.55;;;;;;;;;;5071496;28;20043;-37
2022/01/04 10:41:05;;;;;;;16.73;8.38;;;;;;;;;;5072245;28;20489;-37
2022/01/04 10:43:32;;;;;;;22.10;7.70;;;;;;;;;;5072038;28;20037;-37
2022/01/04 10:45:58;;;;;;;16.27;7.82;;;;;;;;;;5072187;28;20103;-37
2022/01/04 10:48:28;;;;;;;15.80;7.30;;;;;;;;;;5071730;28;20044;-37
2022/01/04 10:51:14;;;;;;;19.55;7.55;;;;;;;;;;5071824;28;20028;-37
2022/01/04 10:53:43;;;;;;;16.83;6.38;;;;;;;;;;5071336;28;20479;-37
2022/01/04 10:56:11;;;;;;;14.77;6.60;;;;;;;;;;5071675;28;20475;-38
2022/01/04 10:58:39;;;;;;;15.80;5.50;;;;;;;;;;5071732;28;20490;-38
2022/01/04 11:01:15;;;;;;;13.98;6.45;;;;;;;;;;5071526;28;20024;-38
2022/01/04 11:03:42;;;;;;;18.58;7.47;;;;;;;;;;5071669;28;20041;-37
2022/01/04 11:06:14;;;;;;;9.95;5.25;;;;;;;;;;5071539;28;20128;-38
2022/01/04 11:08:40;;;;;;;15.35;7.05;;;;;;;;;;5071436;28;20041;-38
2022/01/04 11:11:06;;;;;;;16.10;7.40;;;;;;;;;;5071753;28;20069;-37
2022/01/04 11:13:31;;;;;;;11.68;6.07;;;;;;;;;;5071580;28;20077;-37
2022/01/04 11:15:58;;;;;;;14.10;6.10;;;;;;;;;;5071515;28;20522;-38
2022/01/04 11:18:24;;;;;;;16.42;5.72;;;;;;;;;;5071593;28;20493;-38
2022/01/04 11:20:50;;;;;;;10.05;6.40;;;;;;;;;;5071720;28;20059;-38
2022/01/04 11:23:16;;;;;;;13.88;4.53;;;;;;;;;;5071235;28;20052;-37
2022/01/04 11:25:45;;;;;;;17.67;6.32;;;;;;;;;;5071171;28;20044;-37
2022/01/04 11:28:15;;;;;;;12.35;6.13;;;;;;;;;;5071629;28;20459;-37
2022/01/04 11:30:59;;;;;;;15.02;6.85;;;;;;;;;;5071135;28;20489;-38
2022/01/04 11:33:35;;;;;;;12.95;5.68;;;;;;;;;;5071469;28;20032;-38
2022/01/04 11:36:01;;;;;;;10.68;4.57;;;;;;;;;;5071374;28;20035;-37
2022/01/04 11:38:31;;;;;;;22.27;6.47;;;;;;;;;;5071303;28;20406;-38
2022/01/04 11:40:57;;;;;;;13.13;4.85;;;;;;;;;;5071035;28;20048;-38
2022/01/04 11:43:40;;;;;;;11.27;5.40;;;;;;;;;;5071285;28;20404;-37
2022/01/04 11:46:05;;;;;;;;;;;;;;;;;;5071810;28;20039;-37
2022/01/04 11:48:31;;;;;;;14.70;6.65;;;;;;;;;;5071318;28;19912;-37
2022/01/04 11:50:58;;;;;;;15.45;4.88;;;;;;;;;;5072625;28;20564;-38
2022/01/04 11:53:24;;;;;;;11.80;6.10;;;;;;;;;;5075017;28;20024;-38
2022/01/04 11:56:00;;;;;;;11.32;5.57;;;;;;;;;;5075448;28;20463;-37
2022/01/04 11:58:33;;;;;;;10.65;4.93;;;;;;;;;;5075004;28;20471;-37
2022/01/04 12:01:00;;;;;;;12.55;5.15;;;;;;;;;;5075001;28;20151;-38
2022/01/04 12:03:43;;;;;;;15.25;5.97;;;;;;;;;;5075067;28;20093;-37
2022/01/04 12:06:10;;;;;;;11.20;5.50;;;;;;;;;;5074939;28;20565;-38
2022/01/04 12:08:36;;;;;;;9.18;4.60;;;;;;;;;;5090764;28;20033;-38
2022/01/04 12:11:03;;;;;;;9.93;4.70;;;;;;;;;;5073650;28;20036;-38
2022/01/04 12:13:47;;;;;;;9.57;4.28;;;;;;;;;;5074593;28;20025;-38
2022/01/04 12:16:13;;;;;;;10.05;4.72;;;;;;;;;;5075031;28;20138;-37
2022/01/04 12:18:38;;;;;;;9.65;4.90;;;;;;;;;;5074969;28;20457;-38
2022/01/04 12:21:16;;;;;;;7.55;5.50;;;;;;;;;;5074713;28;20387;-42
2022/01/04 12:23:42;;;;;;;10.55;4.60;;;;;;;;;;5074379;28;20041;-38
2022/01/04 12:26:11;;;;;;;13.23;5.80;;;;;;;;;;5074690;28;20016;-38
2022/01/04 12:28:37;;;;;;;12.82;6.10;;;;;;;;;;5074340;28;20120;-38
2022/01/04 12:31:18;;;;;;;11.30;5.32;;;;;;;;;;5074381;28;20119;-37
2022/01/04 12:33:48;;;;;;;14.15;6.32;;;;;;;;;;5074553;28;20032;-38
2022/01/04 12:36:30;;;;;;;14.13;7.32;;;;;;;;;;5074466;28;20086;-38
2022/01/04 12:38:58;;;;;;;12.40;5.57;;;;;;;;;;5074085;28;20049;-38
2022/01/04 12:41:23;;;;;;;12.20;5.80;;;;;;;;;;5074212;28;20032;-38
2022/01/04 12:43:50;;;;;;;10.05;4.63;;;;;;;;;;5074156;28;20094;-37
2022/01/04 12:46:26;;;;;;;13.75;5.82;;;;;;;;;;5074145;28;20027;-38
2022/01/04 12:48:53;;;;;;;13.65;5.57;;;;;;;;;;5074617;28;20133;-38
2022/01/04 12:51:23;;;;;;;10.45;5.03;;;;;;;;;;5074125;28;20509;-37
2022/01/04 12:53:49;;;;;;;10.80;5.20;;;;;;;;;;5073948;28;20032;-38
2022/01/04 12:56:16;;;;;;;13.02;4.40;;;;;;;;;;5073991;28;20586;-38
2022/01/04 12:58:43;;;;;;;9.25;5.22;;;;;;;;;;5073890;28;20059;-38
2022/01/04 13:01:09;;;;;;;13.82;5.72;;;;;;;;;;5072155;28;20683;-38
2022/01/04 13:03:34;;;;;;;9.32;4.97;;;;;;;;;;5073574;28;20040;-38
2022/01/04 13:06:03;;;;;;;11.63;5.40;;;;;;;;;;5074167;28;20339;-38
2022/01/04 13:08:29;;;;;;;13.30;5.90;;;;;;;;;;5073816;28;20372;-38
2022/01/04 13:11:05;;;;;;;12.15;5.72;;;;;;;;;;5073819;28;20016;-37
2022/01/04 13:13:31;;;;;;;12.73;5.35;;;;;;;;;;5073467;28;20517;-38
2022/01/04 13:16:15;;;;;;;16.40;5.95;;;;;;;;;;5073809;28;20025;-38
2022/01/04 13:18:42;;;;;;;12.32;6.15;;;;;;;;;;5073439;28;20071;-37
2022/01/04 13:21:08;;;;;;;15.65;5.30;;;;;;;;;;5073682;28;20021;-38
2022/01/04 13:23:41;;;;;;;9.95;5.93;;;;;;;;;;5073362;28;20033;-38
2022/01/04 13:26:09;;;;;;;8.90;5.65;;;;;;;;;;5073543;28;20032;-38
2022/01/04 13:28:35;;;;;;;19.23;6.63;;;;;;;;;;5073084;28;20024;-38
2022/01/04 13:31:04;;;;;;;15.10;5.68;;;;;;;;;;5073331;28;20444;-37
2022/01/04 13:33:35;;;;;;;8.25;4.68;;;;;;;;;;5073259;28;20017;-38
2022/01/04 13:36:06;;;;;;;13.20;5.10;;;;;;;;;;5073589;28;20098;-38
2022/01/04 13:38:34;;;;;;;9.40;5.32;;;;;;;;;;5073130;28;20032;-38
2022/01/04 13:41:01;;;;;;;11.40;4.50;;;;;;;;;;5073212;28;20078;-38
2022/01/04 13:43:28;;;;;;;11.30;5.55;;;;;;;;;;5072920;28;20045;-38
2022/01/04 13:45:58;;;;;;;14.75;5.13;;;;;;;;;;5073022;28;20547;-37
2022/01/04 13:48:50;;;;;;;11.32;5.07;;;;;;;;;;5073009;28;20032;-39
2022/01/04 13:51:20;;;;;;;7.95;5.20;;;;;;;;;;5068719;28;20473;-38
2022/01/04 13:53:49;;;;;;;10.40;4.75;;;;;;;;;;5072851;28;20025;-38
2022/01/04 13:56:16;;;;;;;8.65;4.38;;;;;;;;;;5073142;28;20024;-37
2022/01/04 13:58:47;;;;;;;9.77;4.30;;;;;;;;;;5073047;28;20099;-37
2022/01/04 14:01:14;;;;;;;10.77;5.22;;;;;;;;;;5072732;28;20067;-38
2022/01/04 14:03:41;;;;;;;11.32;6.38;;;;;;;;;;5072583;28;20383;-37
2022/01/04 14:06:25;;;;;;;11.27;5.00;;;;;;;;;;5072966;28;20028;-38
2022/01/04 14:08:51;;;;;;;12.23;5.50;;;;;;;;;;5072622;28;20770;-37
2022/01/04 14:11:27;;;;;;;15.32;4.95;;;;;;;;;;5072526;28;20032;-38
2022/01/04 14:13:53;;;;;;;8.02;3.70;;;;;;;;;;5087194;28;20111;-38
2022/01/04 14:16:20;;;;;;;8.52;4.80;;;;;;;;;;5072515;28;20055;-37
2022/01/04 14:19:04;;;;;;;9.93;5.07;;;;;;;;;;5072594;28;20124;-38
2022/01/04 14:21:30;;;;;;;9.23;4.05;;;;;;;;;;5072190;28;20430;-38
2022/01/04 14:23:56;;;;;;;9.38;4.00;;;;;;;;;;5072229;28;20032;-38
2022/01/04 14:26:22;;;;;;;8.48;4.10;;;;;;;;;;5072297;28;20040;-38
2022/01/04 14:28:47;;;;;;;12.80;4.70;;;;;;;;;;5072233;28;20020;-38
2022/01/04 14:31:16;;;;;;;13.57;5.72;;;;;;;;;;5072241;28;20095;-38
2022/01/04 14:33:42;;;;;;;13.35;5.57;;;;;;;;;;5072275;28;20029;-38
2022/01/04 14:36:08;;;;;;;10.02;4.50;;;;;;;;;;5072338;28;20078;-38
2022/01/04 14:38:33;;;;;;;12.93;5.20;;;;;;;;;;5071897;28;20528;-38
2022/01/04 14:40:59;;;;;;;9.52;5.63;;;;;;;;;;5071952;28;20060;-38